sensor_id;sensor_type;location;lat;lon;timestamp;temperature;humidity
15343;DHT22;7771;48.478;8.936;2023-02-28T00:00:09;1.50;97.70
15343;DHT22;7771;48.478;8.936;2023-02-28T00:02:37;1.50;97.70
15343;DHT22;7771;48.478;8.936;2023-02-28T00:05:05;1.50;97.70
15343;DHT22;7771;48.478;8.936;2023-02-28T00:07:32;1.50;97.80
15343;DHT22;7771;48.478;8.936;2023-02-28T00:10:00;1.50;98.00
15343;DHT22;7771;48.478;8.936;2023-02-28T00:14:55;1.60;97.80
15343;DHT22;7771;48.478;8.936;2023-02-28T00:17:22;1.50;97.80
15343;DHT22;7771;48.478;8.936;2023-02-28T00:19:48;1.60;97.90
15343;DHT22;7771;48.478;8.936;2023-02-28T00:22:16;1.60;97.90
15343;DHT22;7771;48.478;8.936;2023-02-28T00:24:43;1.60;97.80
15343;DHT22;7771;48.478;8.936;2023-02-28T00:27:10;1.60;97.90
15343;DHT22;7771;48.478;8.936;2023-02-28T00:29:36;1.60;97.90
15343;DHT22;7771;48.478;8.936;2023-02-28T00:32:03;1.60;98.00
15343;DHT22;7771;48.478;8.936;2023-02-28T00:34:30;1.60;98.00
15343;DHT22;7771;48.478;8.936;2023-02-28T00:36:57;1.60;98.00
15343;DHT22;7771;48.478;8.936;2023-02-28T00:39:24;1.50;98.00
15343;DHT22;7771;48.478;8.936;2023-02-28T00:41:51;1.50;98.10
15343;DHT22;7771;48.478;8.936;2023-02-28T00:44:18;1.50;98.20
15343;DHT22;7771;48.478;8.936;2023-02-28T00:46:44;1.40;98.20
15343;DHT22;7771;48.478;8.936;2023-02-28T00:49:11;1.40;98.30
15343;DHT22;7771;48.478;8.936;2023-02-28T00:51:38;1.50;98.30
15343;DHT22;7771;48.478;8.936;2023-02-28T00:54:05;1.40;98.30
15343;DHT22;7771;48.478;8.936;2023-02-28T00:56:32;1.40;98.20
15343;DHT22;7771;48.478;8.936;2023-02-28T00:58:59;1.40;98.30
15343;DHT22;7771;48.478;8.936;2023-02-28T01:01:26;1.40;98.30
15343;DHT22;7771;48.478;8.936;2023-02-28T01:03:53;1.30;98.50
15343;DHT22;7771;48.478;8.936;2023-02-28T01:06:20;1.30;98.40
15343;DHT22;7771;48.478;8.936;2023-02-28T01:08:48;1.30;98.60
15343;DHT22;7771;48.478;8.936;2023-02-28T01:11:15;1.30;98.50
15343;DHT22;7771;48.478;8.936;2023-02-28T01:13:43;1.30;98.60
15343;DHT22;7771;48.478;8.936;2023-02-28T01:16:10;1.20;98.70
15343;DHT22;7771;48.478;8.936;2023-02-28T01:18:36;1.20;98.60
15343;DHT22;7771;48.478;8.936;2023-02-28T01:21:08;1.20;98.80
15343;DHT22;7771;48.478;8.936;2023-02-28T01:23:34;1.20;98.90
15343;DHT22;7771;48.478;8.936;2023-02-28T01:26:05;1.20;98.90
15343;DHT22;7771;48.478;8.936;2023-02-28T01:28:32;1.20;98.90
15343;DHT22;7771;48.478;8.936;2023-02-28T01:30:58;1.20;99.00
15343;DHT22;7771;48.478;8.936;2023-02-28T01:33:26;1.20;98.90
15343;DHT22;7771;48.478;8.936;2023-02-28T01:36:14;1.20;99.10
15343;DHT22;7771;48.478;8.936;2023-02-28T01:38:41;1.20;99.00
15343;DHT22;7771;48.478;8.936;2023-02-28T01:41:08;1.20;99.20
15343;DHT22;7771;48.478;8.936;2023-02-28T01:46:24;1.20;99.20
15343;DHT22;7771;48.478;8.936;2023-02-28T01:48:56;1.10;99.30
15343;DHT22;7771;48.478;8.936;2023-02-28T01:51:24;1.10;99.50
15343;DHT22;7771;48.478;8.936;2023-02-28T01:53:51;1.00;99.70
15343;DHT22;7771;48.478;8.936;2023-02-28T01:56:18;1.10;99.50
15343;DHT22;7771;48.478;8.936;2023-02-28T01:58:44;1.10;99.30
15343;DHT22;7771;48.478;8.936;2023-02-28T02:01:11;1.10;99.40
15343;DHT22;7771;48.478;8.936;2023-02-28T02:03:38;1.10;99.50
15343;DHT22;7771;48.478;8.936;2023-02-28T02:06:04;1.10;99.50
15343;DHT22;7771;48.478;8.936;2023-02-28T02:08:32;1.10;99.90
15343;DHT22;7771;48.478;8.936;2023-02-28T02:11:00;1.10;99.60
15343;DHT22;7771;48.478;8.936;2023-02-28T02:16:06;1.10;99.70
15343;DHT22;7771;48.478;8.936;2023-02-28T02:18:46;1.00;99.70
15343;DHT22;7771;48.478;8.936;2023-02-28T02:21:56;0.90;99.80
15343;DHT22;7771;48.478;8.936;2023-02-28T02:24:19;1.00;99.90
15343;DHT22;7771;48.478;8.936;2023-02-28T02:26:55;0.90;99.90
15343;DHT22;7771;48.478;8.936;2023-02-28T02:29:32;0.90;99.90
15343;DHT22;7771;48.478;8.936;2023-02-28T02:34:49;0.70;99.90
15343;DHT22;7771;48.478;8.936;2023-02-28T02:37:38;0.70;99.90
15343;DHT22;7771;48.478;8.936;2023-02-28T02:40:22;0.70;99.90
15343;DHT22;7771;48.478;8.936;2023-02-28T02:43:13;0.60;99.90
15343;DHT22;7771;48.478;8.936;2023-02-28T02:45:45;0.60;99.90
15343;DHT22;7771;48.478;8.936;2023-02-28T02:48:11;0.60;99.90
15343;DHT22;7771;48.478;8.936;2023-02-28T02:50:42;0.70;99.90
15343;DHT22;7771;48.478;8.936;2023-02-28T02:53:06;0.70;99.90
15343;DHT22;7771;48.478;8.936;2023-02-28T02:55:35;0.70;99.90
15343;DHT22;7771;48.478;8.936;2023-02-28T02:58:03;0.60;99.90
15343;DHT22;7771;48.478;8.936;2023-02-28T03:00:32;0.60;99.90
15343;DHT22;7771;48.478;8.936;2023-02-28T03:02:57;0.60;99.90
15343;DHT22;7771;48.478;8.936;2023-02-28T03:05:27;0.60;99.90
15343;DHT22;7771;48.478;8.936;2023-02-28T03:07:52;0.70;99.90
15343;DHT22;7771;48.478;8.936;2023-02-28T03:10:32;0.70;99.90
15343;DHT22;7771;48.478;8.936;2023-02-28T03:13:08;0.70;99.90
15343;DHT22;7771;48.478;8.936;2023-02-28T03:18:02;0.70;99.90
15343;DHT22;7771;48.478;8.936;2023-02-28T03:23:59;0.80;99.90
15343;DHT22;7771;48.478;8.936;2023-02-28T03:26:09;0.90;99.90
15343;DHT22;7771;48.478;8.936;2023-02-28T03:28:48;0.90;99.90
15343;DHT22;7771;48.478;8.936;2023-02-28T03:31:13;0.80;99.90
15343;DHT22;7771;48.478;8.936;2023-02-28T03:33:42;0.90;99.90
15343;DHT22;7771;48.478;8.936;2023-02-28T03:36:15;1.00;99.90
15343;DHT22;7771;48.478;8.936;2023-02-28T03:38:44;0.90;99.90
15343;DHT22;7771;48.478;8.936;2023-02-28T03:41:19;0.90;99.90
15343;DHT22;7771;48.478;8.936;2023-02-28T03:43:53;1.00;99.90
15343;DHT22;7771;48.478;8.936;2023-02-28T03:46:18;1.00;99.90
15343;DHT22;7771;48.478;8.936;2023-02-28T03:48:45;1.00;99.90
15343;DHT22;7771;48.478;8.936;2023-02-28T03:51:12;1.00;99.90
15343;DHT22;7771;48.478;8.936;2023-02-28T03:53:39;1.00;99.90
15343;DHT22;7771;48.478;8.936;2023-02-28T03:56:08;1.00;99.90
15343;DHT22;7771;48.478;8.936;2023-02-28T03:58:37;1.00;99.90
15343;DHT22;7771;48.478;8.936;2023-02-28T04:01:07;1.00;99.90
15343;DHT22;7771;48.478;8.936;2023-02-28T04:03:32;1.00;99.90
15343;DHT22;7771;48.478;8.936;2023-02-28T04:05:58;1.00;99.90
15343;DHT22;7771;48.478;8.936;2023-02-28T04:08:25;0.90;99.90
15343;DHT22;7771;48.478;8.936;2023-02-28T04:10:59;1.00;99.90
15343;DHT22;7771;48.478;8.936;2023-02-28T04:13:23;0.90;99.90
15343;DHT22;7771;48.478;8.936;2023-02-28T04:15:50;1.00;99.90
15343;DHT22;7771;48.478;8.936;2023-02-28T04:20:46;1.00;99.90
15343;DHT22;7771;48.478;8.936;2023-02-28T04:23:12;1.00;99.90
15343;DHT22;7771;48.478;8.936;2023-02-28T04:25:39;1.00;99.90
15343;DHT22;7771;48.478;8.936;2023-02-28T04:28:06;1.10;99.90
15343;DHT22;7771;48.478;8.936;2023-02-28T04:30:33;1.20;99.90
15343;DHT22;7771;48.478;8.936;2023-02-28T04:33:00;1.10;99.90
15343;DHT22;7771;48.478;8.936;2023-02-28T04:35:27;1.10;99.90
15343;DHT22;7771;48.478;8.936;2023-02-28T04:37:55;1.10;99.90
15343;DHT22;7771;48.478;8.936;2023-02-28T04:40:22;1.10;99.90
15343;DHT22;7771;48.478;8.936;2023-02-28T04:42:48;1.00;99.90
15343;DHT22;7771;48.478;8.936;2023-02-28T04:45:15;1.00;99.90
15343;DHT22;7771;48.478;8.936;2023-02-28T04:47:41;0.90;99.90
15343;DHT22;7771;48.478;8.936;2023-02-28T04:50:08;1.00;99.90
15343;DHT22;7771;48.478;8.936;2023-02-28T04:52:35;1.10;99.90
15343;DHT22;7771;48.478;8.936;2023-02-28T04:55:02;1.10;99.90
15343;DHT22;7771;48.478;8.936;2023-02-28T04:57:29;1.10;99.90
15343;DHT22;7771;48.478;8.936;2023-02-28T04:59:57;1.10;99.90
15343;DHT22;7771;48.478;8.936;2023-02-28T05:02:24;1.00;99.90
15343;DHT22;7771;48.478;8.936;2023-02-28T05:04:51;1.00;99.90
15343;DHT22;7771;48.478;8.936;2023-02-28T05:07:18;1.00;99.90
15343;DHT22;7771;48.478;8.936;2023-02-28T05:09:44;1.00;99.90
15343;DHT22;7771;48.478;8.936;2023-02-28T05:12:11;1.10;99.90
15343;DHT22;7771;48.478;8.936;2023-02-28T05:17:07;1.10;99.90
15343;DHT22;7771;48.478;8.936;2023-02-28T05:19:33;1.10;99.90
15343;DHT22;7771;48.478;8.936;2023-02-28T05:22:00;1.00;99.90
15343;DHT22;7771;48.478;8.936;2023-02-28T05:24:27;1.10;99.90
15343;DHT22;7771;48.478;8.936;2023-02-28T05:26:54;1.10;99.90
15343;DHT22;7771;48.478;8.936;2023-02-28T05:29:21;1.20;99.90
15343;DHT22;7771;48.478;8.936;2023-02-28T05:31:48;1.10;99.90
15343;DHT22;7771;48.478;8.936;2023-02-28T05:36:43;1.10;99.90
15343;DHT22;7771;48.478;8.936;2023-02-28T05:39:10;1.20;99.90
15343;DHT22;7771;48.478;8.936;2023-02-28T05:41:37;1.20;99.90
15343;DHT22;7771;48.478;8.936;2023-02-28T05:44:04;1.10;99.90
15343;DHT22;7771;48.478;8.936;2023-02-28T05:46:32;1.20;99.90
15343;DHT22;7771;48.478;8.936;2023-02-28T05:48:58;1.10;99.90
15343;DHT22;7771;48.478;8.936;2023-02-28T05:51:25;1.10;99.90
15343;DHT22;7771;48.478;8.936;2023-02-28T05:56:21;1.10;99.90
15343;DHT22;7771;48.478;8.936;2023-02-28T05:58:49;1.10;99.90
15343;DHT22;7771;48.478;8.936;2023-02-28T06:01:21;1.00;99.90
15343;DHT22;7771;48.478;8.936;2023-02-28T06:03:46;1.00;99.90
15343;DHT22;7771;48.478;8.936;2023-02-28T06:06:13;1.10;99.90
15343;DHT22;7771;48.478;8.936;2023-02-28T06:08:40;1.10;99.90
15343;DHT22;7771;48.478;8.936;2023-02-28T06:13:35;1.00;99.90
15343;DHT22;7771;48.478;8.936;2023-02-28T06:16:02;1.10;99.90
15343;DHT22;7771;48.478;8.936;2023-02-28T06:18:30;1.10;99.90
15343;DHT22;7771;48.478;8.936;2023-02-28T06:20:58;1.10;99.90
15343;DHT22;7771;48.478;8.936;2023-02-28T06:23:25;1.10;99.90
15343;DHT22;7771;48.478;8.936;2023-02-28T06:28:21;1.10;99.90
15343;DHT22;7771;48.478;8.936;2023-02-28T06:33:15;1.10;99.90
15343;DHT22;7771;48.478;8.936;2023-02-28T06:35:44;1.10;99.90
15343;DHT22;7771;48.478;8.936;2023-02-28T06:38:10;1.20;99.90
15343;DHT22;7771;48.478;8.936;2023-02-28T06:40:37;1.20;99.90
15343;DHT22;7771;48.478;8.936;2023-02-28T06:43:04;1.20;99.90
15343;DHT22;7771;48.478;8.936;2023-02-28T06:45:32;1.20;99.90
15343;DHT22;7771;48.478;8.936;2023-02-28T06:48:00;1.20;99.90
15343;DHT22;7771;48.478;8.936;2023-02-28T06:50:27;1.10;99.90
15343;DHT22;7771;48.478;8.936;2023-02-28T06:52:54;1.20;99.90
15343;DHT22;7771;48.478;8.936;2023-02-28T06:55:22;1.30;99.90
15343;DHT22;7771;48.478;8.936;2023-02-28T06:57:49;1.30;99.90
15343;DHT22;7771;48.478;8.936;2023-02-28T07:00:16;1.30;99.90
15343;DHT22;7771;48.478;8.936;2023-02-28T07:05:11;1.30;99.90
15343;DHT22;7771;48.478;8.936;2023-02-28T07:07:39;1.40;99.90
15343;DHT22;7771;48.478;8.936;2023-02-28T07:10:07;1.40;99.90
15343;DHT22;7771;48.478;8.936;2023-02-28T07:12:33;1.40;99.90
15343;DHT22;7771;48.478;8.936;2023-02-28T07:15:01;1.40;99.90
15343;DHT22;7771;48.478;8.936;2023-02-28T07:17:29;1.30;99.90
15343;DHT22;7771;48.478;8.936;2023-02-28T07:19:55;1.40;99.90
15343;DHT22;7771;48.478;8.936;2023-02-28T07:22:22;1.40;99.90
15343;DHT22;7771;48.478;8.936;2023-02-28T07:27:18;1.40;99.90
15343;DHT22;7771;48.478;8.936;2023-02-28T07:32:13;1.50;99.90
15343;DHT22;7771;48.478;8.936;2023-02-28T07:34:40;1.60;99.90
15343;DHT22;7771;48.478;8.936;2023-02-28T07:37:08;1.60;99.90
15343;DHT22;7771;48.478;8.936;2023-02-28T07:39:35;1.60;99.90
15343;DHT22;7771;48.478;8.936;2023-02-28T07:42:05;1.70;99.90
15343;DHT22;7771;48.478;8.936;2023-02-28T07:44:32;1.70;99.90
15343;DHT22;7771;48.478;8.936;2023-02-28T07:47:00;1.70;99.90
15343;DHT22;7771;48.478;8.936;2023-02-28T07:49:26;1.70;99.90
15343;DHT22;7771;48.478;8.936;2023-02-28T07:51:54;1.80;99.90
15343;DHT22;7771;48.478;8.936;2023-02-28T07:54:20;1.80;99.90
15343;DHT22;7771;48.478;8.936;2023-02-28T07:56:47;1.80;99.90
15343;DHT22;7771;48.478;8.936;2023-02-28T08:01:42;1.90;99.90
15343;DHT22;7771;48.478;8.936;2023-02-28T08:04:09;1.90;99.90
15343;DHT22;7771;48.478;8.936;2023-02-28T08:06:35;2.00;99.90
15343;DHT22;7771;48.478;8.936;2023-02-28T08:09:02;2.10;99.90
15343;DHT22;7771;48.478;8.936;2023-02-28T08:11:31;2.10;99.90
15343;DHT22;7771;48.478;8.936;2023-02-28T08:13:57;2.10;99.90
15343;DHT22;7771;48.478;8.936;2023-02-28T08:16:24;2.10;99.90
15343;DHT22;7771;48.478;8.936;2023-02-28T08:21:20;2.10;99.90
15343;DHT22;7771;48.478;8.936;2023-02-28T08:23:47;2.20;99.90
15343;DHT22;7771;48.478;8.936;2023-02-28T08:26:14;2.10;99.90
15343;DHT22;7771;48.478;8.936;2023-02-28T08:28:40;2.20;99.90
15343;DHT22;7771;48.478;8.936;2023-02-28T08:31:08;2.20;99.90
15343;DHT22;7771;48.478;8.936;2023-02-28T08:33:35;2.10;99.90
15343;DHT22;7771;48.478;8.936;2023-02-28T08:36:02;2.20;99.90
15343;DHT22;7771;48.478;8.936;2023-02-28T08:38:28;2.20;99.90
15343;DHT22;7771;48.478;8.936;2023-02-28T08:40:57;2.30;99.90
15343;DHT22;7771;48.478;8.936;2023-02-28T08:43:24;2.30;99.90
15343;DHT22;7771;48.478;8.936;2023-02-28T08:45:52;2.30;99.90
15343;DHT22;7771;48.478;8.936;2023-02-28T08:48:19;2.30;99.90
15343;DHT22;7771;48.478;8.936;2023-02-28T08:51:03;2.30;99.90
15343;DHT22;7771;48.478;8.936;2023-02-28T08:53:29;2.30;99.90
15343;DHT22;7771;48.478;8.936;2023-02-28T08:55:57;2.40;99.90
15343;DHT22;7771;48.478;8.936;2023-02-28T08:58:24;2.40;99.90
15343;DHT22;7771;48.478;8.936;2023-02-28T09:00:52;2.50;99.90
15343;DHT22;7771;48.478;8.936;2023-02-28T09:03:20;2.50;99.90
15343;DHT22;7771;48.478;8.936;2023-02-28T09:05:55;2.50;99.90
15343;DHT22;7771;48.478;8.936;2023-02-28T09:08:21;2.50;99.90
15343;DHT22;7771;48.478;8.936;2023-02-28T09:10:50;2.50;99.90
15343;DHT22;7771;48.478;8.936;2023-02-28T09:13:17;2.50;99.90
15343;DHT22;7771;48.478;8.936;2023-02-28T09:15:43;2.60;99.90
15343;DHT22;7771;48.478;8.936;2023-02-28T09:18:11;2.70;99.90
15343;DHT22;7771;48.478;8.936;2023-02-28T09:20:38;2.70;99.90
15343;DHT22;7771;48.478;8.936;2023-02-28T09:23:05;2.80;99.90
15343;DHT22;7771;48.478;8.936;2023-02-28T09:25:32;2.90;99.90
15343;DHT22;7771;48.478;8.936;2023-02-28T09:27:59;2.90;99.90
15343;DHT22;7771;48.478;8.936;2023-02-28T09:30:26;3.00;99.90
15343;DHT22;7771;48.478;8.936;2023-02-28T09:32:52;3.00;99.90
15343;DHT22;7771;48.478;8.936;2023-02-28T09:35:20;3.10;99.90
15343;DHT22;7771;48.478;8.936;2023-02-28T09:37:47;3.10;99.90
15343;DHT22;7771;48.478;8.936;2023-02-28T09:40:14;3.10;99.90
15343;DHT22;7771;48.478;8.936;2023-02-28T09:42:41;3.10;99.90
15343;DHT22;7771;48.478;8.936;2023-02-28T09:48:03;3.20;99.90
15343;DHT22;7771;48.478;8.936;2023-02-28T09:50:30;3.20;99.90
15343;DHT22;7771;48.478;8.936;2023-02-28T09:52:55;3.20;99.90
15343;DHT22;7771;48.478;8.936;2023-02-28T09:55:28;3.30;99.90
15343;DHT22;7771;48.478;8.936;2023-02-28T09:57:53;3.30;99.90
15343;DHT22;7771;48.478;8.936;2023-02-28T10:00:22;3.40;99.90
15343;DHT22;7771;48.478;8.936;2023-02-28T10:05:24;3.40;99.90
15343;DHT22;7771;48.478;8.936;2023-02-28T10:08:00;3.50;99.90
15343;DHT22;7771;48.478;8.936;2023-02-28T10:10:28;3.50;99.90
15343;DHT22;7771;48.478;8.936;2023-02-28T10:12:54;3.50;99.90
15343;DHT22;7771;48.478;8.936;2023-02-28T10:15:21;3.50;99.90
15343;DHT22;7771;48.478;8.936;2023-02-28T10:17:47;3.70;99.90
15343;DHT22;7771;48.478;8.936;2023-02-28T10:20:15;3.70;99.90
15343;DHT22;7771;48.478;8.936;2023-02-28T10:22:50;3.70;99.90
15343;DHT22;7771;48.478;8.936;2023-02-28T10:25:21;3.80;99.90
15343;DHT22;7771;48.478;8.936;2023-02-28T10:27:48;3.90;99.90
15343;DHT22;7771;48.478;8.936;2023-02-28T10:30:14;4.00;99.90
15343;DHT22;7771;48.478;8.936;2023-02-28T10:35:17;4.10;99.90
15343;DHT22;7771;48.478;8.936;2023-02-28T10:37:43;4.10;99.90
15343;DHT22;7771;48.478;8.936;2023-02-28T10:43:00;4.20;99.90
15343;DHT22;7771;48.478;8.936;2023-02-28T10:45:28;4.30;99.90
15343;DHT22;7771;48.478;8.936;2023-02-28T10:47:55;4.40;99.90
15343;DHT22;7771;48.478;8.936;2023-02-28T10:50:50;4.40;99.90
15343;DHT22;7771;48.478;8.936;2023-02-28T10:53:30;4.50;99.90
15343;DHT22;7771;48.478;8.936;2023-02-28T10:56:02;4.40;99.90
15343;DHT22;7771;48.478;8.936;2023-02-28T11:01:40;4.50;99.90
15343;DHT22;7771;48.478;8.936;2023-02-28T11:04:18;4.50;99.80
15343;DHT22;7771;48.478;8.936;2023-02-28T11:06:44;4.50;99.90
15343;DHT22;7771;48.478;8.936;2023-02-28T11:09:18;4.50;99.70
15343;DHT22;7771;48.478;8.936;2023-02-28T11:11:43;4.60;99.60
15343;DHT22;7771;48.478;8.936;2023-02-28T11:14:22;4.60;99.70
15343;DHT22;7771;48.478;8.936;2023-02-28T11:19:25;4.80;99.50
15343;DHT22;7771;48.478;8.936;2023-02-28T11:21:56;4.90;99.20
15343;DHT22;7771;48.478;8.936;2023-02-28T11:24:30;4.90;99.00
15343;DHT22;7771;48.478;8.936;2023-02-28T11:26:57;4.90;99.20
15343;DHT22;7771;48.478;8.936;2023-02-28T11:29:25;4.90;99.00
15343;DHT22;7771;48.478;8.936;2023-02-28T11:32:04;4.90;99.00
15343;DHT22;7771;48.478;8.936;2023-02-28T11:34:28;4.90;99.00
15343;DHT22;7771;48.478;8.936;2023-02-28T11:36:56;5.00;98.70
15343;DHT22;7771;48.478;8.936;2023-02-28T11:39:23;5.10;98.80
15343;DHT22;7771;48.478;8.936;2023-02-28T11:42:11;5.10;98.50
15343;DHT22;7771;48.478;8.936;2023-02-28T11:44:59;5.10;98.40
15343;DHT22;7771;48.478;8.936;2023-02-28T11:47:44;5.00;98.60
15343;DHT22;7771;48.478;8.936;2023-02-28T11:50:14;5.10;98.50
15343;DHT22;7771;48.478;8.936;2023-02-28T11:53:50;5.10;98.50
15343;DHT22;7771;48.478;8.936;2023-02-28T11:55:45;5.20;98.40
15343;DHT22;7771;48.478;8.936;2023-02-28T11:58:22;5.20;98.40
15343;DHT22;7771;48.478;8.936;2023-02-28T12:03:21;5.20;98.60
15343;DHT22;7771;48.478;8.936;2023-02-28T12:05:49;5.20;98.10
15343;DHT22;7771;48.478;8.936;2023-02-28T12:08:25;5.10;98.40
15343;DHT22;7771;48.478;8.936;2023-02-28T12:11:02;5.10;98.50
15343;DHT22;7771;48.478;8.936;2023-02-28T12:13:28;5.10;98.60
15343;DHT22;7771;48.478;8.936;2023-02-28T12:16:16;5.10;98.40
15343;DHT22;7771;48.478;8.936;2023-02-28T12:18:53;5.20;98.60
15343;DHT22;7771;48.478;8.936;2023-02-28T12:21:25;5.40;98.90
15343;DHT22;7771;48.478;8.936;2023-02-28T12:23:57;5.50;98.90
15343;DHT22;7771;48.478;8.936;2023-02-28T12:26:44;5.80;98.00
15343;DHT22;7771;48.478;8.936;2023-02-28T12:31:40;6.10;97.80
15343;DHT22;7771;48.478;8.936;2023-02-28T12:34:08;6.20;98.00
15343;DHT22;7771;48.478;8.936;2023-02-28T12:36:33;6.40;97.90
15343;DHT22;7771;48.478;8.936;2023-02-28T12:39:05;6.50;97.10
15343;DHT22;7771;48.478;8.936;2023-02-28T12:41:41;6.60;96.90
15343;DHT22;7771;48.478;8.936;2023-02-28T12:44:09;6.70;96.90
15343;DHT22;7771;48.478;8.936;2023-02-28T12:46:37;6.80;97.00
15343;DHT22;7771;48.478;8.936;2023-02-28T12:49:23;6.90;97.10
15343;DHT22;7771;48.478;8.936;2023-02-28T12:51:48;7.10;96.70
15343;DHT22;7771;48.478;8.936;2023-02-28T12:54:21;7.20;96.40
15343;DHT22;7771;48.478;8.936;2023-02-28T12:56:49;7.40;96.20
15343;DHT22;7771;48.478;8.936;2023-02-28T12:59:21;7.50;96.10
15343;DHT22;7771;48.478;8.936;2023-02-28T13:04:40;7.80;94.90
15343;DHT22;7771;48.478;8.936;2023-02-28T13:09:48;7.70;94.50
15343;DHT22;7771;48.478;8.936;2023-02-28T13:12:14;7.60;94.40
15343;DHT22;7771;48.478;8.936;2023-02-28T13:14:41;7.40;94.50
15343;DHT22;7771;48.478;8.936;2023-02-28T13:17:11;7.20;94.80
15343;DHT22;7771;48.478;8.936;2023-02-28T13:19:43;7.00;95.10
15343;DHT22;7771;48.478;8.936;2023-02-28T13:22:17;6.90;95.70
15343;DHT22;7771;48.478;8.936;2023-02-28T13:24:45;7.00;95.40
15343;DHT22;7771;48.478;8.936;2023-02-28T13:27:20;7.00;95.40
15343;DHT22;7771;48.478;8.936;2023-02-28T13:29:40;7.10;95.30
15343;DHT22;7771;48.478;8.936;2023-02-28T13:35:13;7.00;95.60
15343;DHT22;7771;48.478;8.936;2023-02-28T13:37:43;6.90;95.40
15343;DHT22;7771;48.478;8.936;2023-02-28T13:42:55;6.90;95.50
15343;DHT22;7771;48.478;8.936;2023-02-28T13:45:24;7.00;95.50
15343;DHT22;7771;48.478;8.936;2023-02-28T13:47:52;7.00;95.70
15343;DHT22;7771;48.478;8.936;2023-02-28T13:50:33;7.10;95.50
15343;DHT22;7771;48.478;8.936;2023-02-28T13:53:31;7.10;95.40
15343;DHT22;7771;48.478;8.936;2023-02-28T13:56:19;7.20;95.30
15343;DHT22;7771;48.478;8.936;2023-02-28T13:58:55;7.10;95.10
15343;DHT22;7771;48.478;8.936;2023-02-28T14:01:48;7.00;95.40
15343;DHT22;7771;48.478;8.936;2023-02-28T14:06:52;7.10;95.20
15343;DHT22;7771;48.478;8.936;2023-02-28T14:09:26;7.10;95.40
15343;DHT22;7771;48.478;8.936;2023-02-28T14:11:53;7.10;95.50
15343;DHT22;7771;48.478;8.936;2023-02-28T14:14:53;7.10;95.50
15343;DHT22;7771;48.478;8.936;2023-02-28T14:17:06;7.10;95.60
15343;DHT22;7771;48.478;8.936;2023-02-28T14:19:32;7.20;95.40
15343;DHT22;7771;48.478;8.936;2023-02-28T14:22:04;7.20;95.50
15343;DHT22;7771;48.478;8.936;2023-02-28T14:24:38;7.40;94.90
15343;DHT22;7771;48.478;8.936;2023-02-28T14:32:51;7.20;95.70
15343;DHT22;7771;48.478;8.936;2023-02-28T14:35:29;7.10;95.30
15343;DHT22;7771;48.478;8.936;2023-02-28T14:37:48;7.10;95.20
15343;DHT22;7771;48.478;8.936;2023-02-28T14:40:16;7.00;95.40
15343;DHT22;7771;48.478;8.936;2023-02-28T14:42:46;7.00;95.60
15343;DHT22;7771;48.478;8.936;2023-02-28T14:45:17;6.90;95.40
15343;DHT22;7771;48.478;8.936;2023-02-28T14:47:44;6.90;95.70
15343;DHT22;7771;48.478;8.936;2023-02-28T14:50:18;6.90;95.80
15343;DHT22;7771;48.478;8.936;2023-02-28T14:52:44;6.90;96.00
15343;DHT22;7771;48.478;8.936;2023-02-28T14:55:17;6.90;95.70
15343;DHT22;7771;48.478;8.936;2023-02-28T14:57:51;6.80;95.70
15343;DHT22;7771;48.478;8.936;2023-02-28T15:00:24;6.90;95.80
15343;DHT22;7771;48.478;8.936;2023-02-28T15:02:50;6.90;96.00
15343;DHT22;7771;48.478;8.936;2023-02-28T15:05:19;6.80;96.10
15343;DHT22;7771;48.478;8.936;2023-02-28T15:07:44;6.90;96.00
15343;DHT22;7771;48.478;8.936;2023-02-28T15:12:53;6.90;95.80
15343;DHT22;7771;48.478;8.936;2023-02-28T15:15:19;6.90;96.00
15343;DHT22;7771;48.478;8.936;2023-02-28T15:17:47;7.00;96.20
15343;DHT22;7771;48.478;8.936;2023-02-28T15:20:13;7.00;95.70
15343;DHT22;7771;48.478;8.936;2023-02-28T15:22:39;7.00;95.70
15343;DHT22;7771;48.478;8.936;2023-02-28T15:25:06;6.90;95.90
15343;DHT22;7771;48.478;8.936;2023-02-28T15:27:33;6.90;95.70
15343;DHT22;7771;48.478;8.936;2023-02-28T15:30:05;6.80;95.70
15343;DHT22;7771;48.478;8.936;2023-02-28T15:32:32;6.80;96.00
15343;DHT22;7771;48.478;8.936;2023-02-28T15:34:59;6.80;95.80
15343;DHT22;7771;48.478;8.936;2023-02-28T15:37:29;6.70;95.90
15343;DHT22;7771;48.478;8.936;2023-02-28T15:39:55;6.70;96.20
15343;DHT22;7771;48.478;8.936;2023-02-28T15:42:21;6.70;96.50
15343;DHT22;7771;48.478;8.936;2023-02-28T15:44:47;6.70;96.30
15343;DHT22;7771;48.478;8.936;2023-02-28T15:47:18;6.70;96.20
15343;DHT22;7771;48.478;8.936;2023-02-28T15:49:51;6.70;96.20
15343;DHT22;7771;48.478;8.936;2023-02-28T15:52:17;6.80;96.20
15343;DHT22;7771;48.478;8.936;2023-02-28T15:54:43;6.80;96.20
15343;DHT22;7771;48.478;8.936;2023-02-28T15:57:15;6.80;96.50
15343;DHT22;7771;48.478;8.936;2023-02-28T15:59:42;6.70;96.40
15343;DHT22;7771;48.478;8.936;2023-02-28T16:02:19;6.70;96.60
15343;DHT22;7771;48.478;8.936;2023-02-28T16:04:54;6.70;96.60
15343;DHT22;7771;48.478;8.936;2023-02-28T16:07:20;6.70;96.30
15343;DHT22;7771;48.478;8.936;2023-02-28T16:09:48;6.70;96.20
15343;DHT22;7771;48.478;8.936;2023-02-28T16:12:14;6.70;96.10
15343;DHT22;7771;48.478;8.936;2023-02-28T16:14:41;6.70;96.10
15343;DHT22;7771;48.478;8.936;2023-02-28T16:17:22;6.70;96.10
15343;DHT22;7771;48.478;8.936;2023-02-28T16:19:49;6.80;96.10
15343;DHT22;7771;48.478;8.936;2023-02-28T16:22:16;6.80;95.90
15343;DHT22;7771;48.478;8.936;2023-02-28T16:24:44;6.70;96.10
15343;DHT22;7771;48.478;8.936;2023-02-28T16:27:15;6.60;96.20
15343;DHT22;7771;48.478;8.936;2023-02-28T16:29:39;6.50;96.30
15343;DHT22;7771;48.478;8.936;2023-02-28T16:32:06;6.50;96.50
15343;DHT22;7771;48.478;8.936;2023-02-28T16:34:32;6.60;96.40
15343;DHT22;7771;48.478;8.936;2023-02-28T16:36:59;6.50;96.20
15343;DHT22;7771;48.478;8.936;2023-02-28T16:39:26;6.50;96.30
15343;DHT22;7771;48.478;8.936;2023-02-28T16:41:53;6.40;96.50
15343;DHT22;7771;48.478;8.936;2023-02-28T16:44:35;6.40;96.60
15343;DHT22;7771;48.478;8.936;2023-02-28T16:47:01;6.30;96.60
15343;DHT22;7771;48.478;8.936;2023-02-28T16:49:29;6.30;96.70
15343;DHT22;7771;48.478;8.936;2023-02-28T16:51:56;6.20;97.00
15343;DHT22;7771;48.478;8.936;2023-02-28T16:54:23;6.20;97.00
15343;DHT22;7771;48.478;8.936;2023-02-28T16:56:50;6.10;97.20
15343;DHT22;7771;48.478;8.936;2023-02-28T16:59:21;6.10;97.00
15343;DHT22;7771;48.478;8.936;2023-02-28T17:01:46;6.10;96.90
15343;DHT22;7771;48.478;8.936;2023-02-28T17:04:13;6.10;96.70
15343;DHT22;7771;48.478;8.936;2023-02-28T17:06:40;6.00;96.90
15343;DHT22;7771;48.478;8.936;2023-02-28T17:09:08;5.90;97.00
15343;DHT22;7771;48.478;8.936;2023-02-28T17:11:33;5.80;97.10
15343;DHT22;7771;48.478;8.936;2023-02-28T17:14:00;5.80;97.20
15343;DHT22;7771;48.478;8.936;2023-02-28T17:16:29;5.70;97.50
15343;DHT22;7771;48.478;8.936;2023-02-28T17:18:58;5.60;97.40
15343;DHT22;7771;48.478;8.936;2023-02-28T17:21:23;5.60;97.50
15343;DHT22;7771;48.478;8.936;2023-02-28T17:23:50;5.60;97.80
15343;DHT22;7771;48.478;8.936;2023-02-28T17:26:18;5.60;97.80
15343;DHT22;7771;48.478;8.936;2023-02-28T17:28:44;5.50;97.60
15343;DHT22;7771;48.478;8.936;2023-02-28T17:31:11;5.50;97.60
15343;DHT22;7771;48.478;8.936;2023-02-28T17:33:38;5.40;97.70
15343;DHT22;7771;48.478;8.936;2023-02-28T17:36:06;5.30;98.00
15343;DHT22;7771;48.478;8.936;2023-02-28T17:38:33;5.20;98.00
15343;DHT22;7771;48.478;8.936;2023-02-28T17:40:59;5.20;98.20
15343;DHT22;7771;48.478;8.936;2023-02-28T17:43:27;5.10;98.20